KFYM/FYM METAR and TAF weather

Enter ICAO airport designator
Station Type Date Time Source
KFYM METAR 2019/12/16 05:55 UTC NOAA

KFYM 160555Z AUTO 18016G21KT 10SM OVC013 14/13 A2996 RMK A01


Station Type Date Time Source
KFYM Decoded METAR 2019/12/16 05:55 UTC NOAA

Station name not available
Dec 16, 2019 - 12:55 AM EST / 2019.12.16 0555 UTC
Wind: from the S (180 degrees) at 18 MPH (16 KT) gusting to 24 MPH (21 KT):0
Visibility: 10 mile(s):0
Sky conditions: overcast
Temperature: 57 F (14 C)
Dew Point: 55 F (13 C)
Relative Humidity: 93%
Pressure (altimeter): 29.96 in. Hg (1014 hPa)
ob: KFYM 160555Z AUTO 18016G21KT 10SM OVC013 14/13 A2996 RMK A01
cycle: 6

Station Type Date Time Source
KFYM TAF 2009/08/31 19:45 UTC NOAA

METAR KFYM 311945Z AUTO 01006KT 10SM CLR 26/11 A3009
RMK AO1 T02550111 $

Example: see airport list